createdAt,value
2019-05-25T00:02:13.216Z,17.60
2019-05-25T00:04:42.054Z,17.60
2019-05-25T00:07:10.897Z,17.60
2019-05-25T00:09:39.753Z,17.60
2019-05-25T00:12:08.625Z,17.50
2019-05-25T00:14:37.434Z,17.50
2019-05-25T00:17:06.276Z,17.50
2019-05-25T00:19:35.882Z,17.60
2019-05-25T00:22:04.676Z,17.60
2019-05-25T00:24:34.305Z,17.60
2019-05-25T00:27:03.865Z,17.60
2019-05-25T00:32:02.211Z,17.70
2019-05-25T00:34:31.765Z,17.80
2019-05-25T00:37:00.663Z,17.80
2019-05-25T00:39:29.463Z,17.70
2019-05-25T00:41:59.054Z,17.60
2019-05-25T00:44:27.923Z,17.50
2019-05-25T00:46:56.763Z,17.50
2019-05-25T00:49:25.611Z,17.50
2019-05-25T00:51:54.451Z,17.60
2019-05-25T00:54:28.061Z,17.50
2019-05-25T00:56:52.162Z,17.60
2019-05-25T00:59:20.998Z,17.40
2019-05-25T01:01:50.587Z,17.40
2019-05-25T01:04:19.425Z,17.40
2019-05-25T01:06:48.285Z,17.40
2019-05-25T01:09:17.139Z,17.40
2019-05-25T01:11:45.985Z,17.30
2019-05-25T01:14:14.827Z,17.30
2019-05-25T01:19:13.115Z,17.20
2019-05-25T01:21:41.988Z,17.10
2019-05-25T01:24:10.810Z,17.10
2019-05-25T01:26:39.715Z,17.10
2019-05-25T01:29:08.546Z,16.90
2019-05-25T01:31:37.387Z,17.00
2019-05-25T01:34:06.257Z,17.00
2019-05-25T01:36:35.089Z,16.80
2019-05-25T01:39:03.949Z,16.80
2019-05-25T01:41:32.825Z,16.70
2019-05-25T01:44:01.666Z,16.70
2019-05-25T01:46:30.502Z,16.50
2019-05-25T01:51:28.772Z,16.70
2019-05-25T01:53:57.607Z,16.60
2019-05-25T01:56:27.183Z,16.70
2019-05-25T01:58:56.016Z,16.60
2019-05-25T02:01:24.861Z,16.60
2019-05-25T02:06:23.149Z,16.40
2019-05-25T02:08:51.993Z,16.50
2019-05-25T02:11:20.823Z,16.60
2019-05-25T02:13:49.754Z,16.50
2019-05-25T02:16:18.525Z,16.40
2019-05-25T02:18:48.103Z,16.40
2019-05-25T02:21:16.955Z,16.40
2019-05-25T02:23:45.787Z,16.40
2019-05-25T02:26:14.617Z,16.40
2019-05-25T02:28:43.453Z,16.30
2019-05-25T02:31:12.305Z,16.30
2019-05-25T02:33:41.141Z,16.40
2019-05-25T02:36:09.981Z,16.30
2019-05-25T02:38:38.830Z,16.30
2019-05-25T02:41:07.673Z,16.20
2019-05-25T02:43:36.511Z,16.10
2019-05-25T02:46:05.355Z,16.00
2019-05-25T02:48:34.208Z,16.00
2019-05-25T02:51:03.042Z,16.10
2019-05-25T02:53:31.887Z,16.10
2019-05-25T02:56:00.752Z,16.00
2019-05-25T02:58:29.566Z,16.00
2019-05-25T03:00:59.143Z,16.00
2019-05-25T03:03:27.979Z,16.10
2019-05-25T03:05:56.847Z,16.00
2019-05-25T03:08:25.743Z,16.10
2019-05-25T03:10:54.551Z,16.10
2019-05-25T03:13:23.387Z,16.00
2019-05-25T03:15:52.219Z,16.00
2019-05-25T03:18:21.076Z,16.00
2019-05-25T03:20:49.984Z,16.00
2019-05-25T03:23:18.776Z,15.90
2019-05-25T03:25:50.049Z,15.90
2019-05-25T03:28:17.214Z,16.00
2019-05-25T03:30:46.056Z,16.10
2019-05-25T03:33:15.703Z,15.90
2019-05-25T03:35:44.480Z,15.90
2019-05-25T03:38:13.316Z,16.00
2019-05-25T03:43:12.346Z,15.90
2019-05-25T03:45:41.933Z,15.80
2019-05-25T03:48:10.786Z,15.80
2019-05-25T03:50:39.641Z,15.80
2019-05-25T03:53:09.217Z,15.80
2019-05-25T03:55:38.065Z,15.80
2019-05-25T03:58:06.916Z,15.80
2019-05-25T04:00:36.491Z,15.80
2019-05-25T04:03:05.376Z,15.70
2019-05-25T04:05:34.179Z,15.80
2019-05-25T04:08:03.030Z,15.70
2019-05-25T04:10:31.878Z,15.80
2019-05-25T04:13:02.595Z,15.60
2019-05-25T04:15:30.692Z,15.70
2019-05-25T04:18:00.271Z,15.60
2019-05-25T04:20:29.113Z,15.70
2019-05-25T04:22:57.955Z,15.60
2019-05-25T04:25:26.794Z,15.60
2019-05-25T04:27:55.714Z,15.60
2019-05-25T04:30:24.559Z,15.50
2019-05-25T04:32:54.119Z,15.50
2019-05-25T04:35:22.972Z,15.40
2019-05-25T04:37:51.803Z,15.40
2019-05-25T04:40:23.024Z,15.40
2019-05-25T04:42:49.541Z,15.40
2019-05-25T04:45:18.391Z,15.40
2019-05-25T04:47:47.976Z,15.40
2019-05-25T04:50:16.926Z,15.40
2019-05-25T04:52:45.670Z,15.40
2019-05-25T04:55:14.503Z,15.40
2019-05-25T04:57:43.352Z,15.40
2019-05-25T05:00:12.202Z,15.40
2019-05-25T05:02:41.046Z,15.50
2019-05-25T05:05:09.881Z,15.50
2019-05-25T05:07:38.727Z,15.50
2019-05-25T05:10:07.582Z,15.50
2019-05-25T05:12:36.432Z,15.50
2019-05-25T05:15:05.268Z,15.60
2019-05-25T05:17:34.861Z,15.50
2019-05-25T05:20:04.467Z,15.60
2019-05-25T05:22:33.295Z,15.60
2019-05-25T05:25:02.161Z,15.70
2019-05-25T05:27:30.992Z,15.70
2019-05-25T05:29:59.843Z,15.70
2019-05-25T05:32:28.722Z,15.80
2019-05-25T05:34:57.532Z,15.80
2019-05-25T05:37:27.119Z,15.80
2019-05-25T05:39:55.975Z,15.90
2019-05-25T05:42:24.811Z,15.90
2019-05-25T05:44:53.655Z,15.90
2019-05-25T05:47:22.523Z,16.00
2019-05-25T05:49:51.372Z,16.00
2019-05-25T05:52:20.225Z,16.00
2019-05-25T05:54:49.057Z,16.10
2019-05-25T05:57:18.668Z,16.10
2019-05-25T05:59:48.247Z,16.20
2019-05-25T06:02:17.103Z,16.20
2019-05-25T06:04:45.953Z,16.30
2019-05-25T06:07:14.803Z,16.30
2019-05-25T06:09:43.671Z,16.40
2019-05-25T06:12:12.499Z,16.50
2019-05-25T06:14:42.079Z,16.60
2019-05-25T06:17:10.932Z,16.70
2019-05-25T06:19:39.821Z,16.80
2019-05-25T06:22:08.625Z,16.90
2019-05-25T06:24:37.461Z,17.00
2019-05-25T06:29:35.762Z,17.10
2019-05-25T06:32:05.364Z,17.10
2019-05-25T06:34:34.213Z,17.20
2019-05-25T06:37:03.071Z,17.20
2019-05-25T06:39:31.957Z,17.20
2019-05-25T06:42:00.794Z,17.20
2019-05-25T06:44:29.650Z,17.30
2019-05-25T06:46:58.497Z,17.30
2019-05-25T06:49:27.341Z,17.30
2019-05-25T06:51:56.165Z,17.30
2019-05-25T06:54:25.022Z,17.30
2019-05-25T06:56:53.950Z,17.40
2019-05-25T06:59:22.801Z,17.40
2019-05-25T07:01:51.641Z,17.40
2019-05-25T07:04:20.496Z,17.50
2019-05-25T07:06:50.058Z,17.50
2019-05-25T07:09:18.895Z,17.60
2019-05-25T07:11:47.743Z,17.60
2019-05-25T07:14:16.567Z,17.70
2019-05-25T07:16:45.414Z,17.90
2019-05-25T07:19:15.025Z,18.00
2019-05-25T07:21:44.585Z,18.00
2019-05-25T07:24:13.431Z,18.00
2019-05-25T07:26:42.263Z,18.10
2019-05-25T07:29:11.096Z,18.10
2019-05-25T07:31:39.928Z,18.10
2019-05-25T07:34:08.769Z,18.10
2019-05-25T07:36:38.338Z,18.00
2019-05-25T07:39:07.189Z,18.10
2019-05-25T07:41:36.036Z,18.10
2019-05-25T07:44:04.909Z,18.30
2019-05-25T07:46:33.737Z,18.40
2019-05-25T07:49:02.584Z,18.40
2019-05-25T07:51:31.420Z,18.40
2019-05-25T07:54:00.270Z,18.60
2019-05-25T07:56:29.109Z,18.50
2019-05-25T07:58:57.953Z,18.60
2019-05-25T08:03:56.247Z,18.80
2019-05-25T08:06:25.140Z,18.80
2019-05-25T08:08:54.012Z,19.00
2019-05-25T08:11:22.885Z,19.00
2019-05-25T08:13:51.725Z,19.10
2019-05-25T08:16:20.647Z,19.30
2019-05-25T08:18:49.406Z,19.30
2019-05-25T08:21:18.273Z,19.50
2019-05-25T08:23:47.105Z,19.50
2019-05-25T08:26:15.941Z,19.60
2019-05-25T08:28:44.839Z,19.70
2019-05-25T08:31:14.438Z,19.80
2019-05-25T08:33:43.278Z,19.90
2019-05-25T08:36:12.150Z,19.70
2019-05-25T08:38:41.725Z,19.70
2019-05-25T08:41:10.640Z,19.70
2019-05-25T08:43:39.475Z,19.70
2019-05-25T08:46:08.317Z,19.90
2019-05-25T08:48:37.906Z,19.90
2019-05-25T08:53:41.608Z,20.10
2019-05-25T08:58:47.536Z,20.00
2019-05-25T09:01:04.100Z,20.20
2019-05-25T09:03:32.992Z,20.20
2019-05-25T09:06:01.791Z,20.00
2019-05-25T09:08:31.385Z,20.00
2019-05-25T09:11:00.231Z,19.90
2019-05-25T09:13:29.072Z,19.90
2019-05-25T09:15:58.665Z,20.10
2019-05-25T09:18:27.511Z,20.10
2019-05-25T09:20:56.381Z,20.10
2019-05-25T09:23:25.524Z,20.30
2019-05-25T09:25:54.715Z,20.50
2019-05-25T09:28:23.572Z,20.40
2019-05-25T09:30:52.427Z,20.30
2019-05-25T09:33:21.288Z,20.40
2019-05-25T09:35:50.180Z,20.40
2019-05-25T09:38:19.058Z,20.30
2019-05-25T09:40:48.579Z,20.50
2019-05-25T09:43:17.406Z,20.70
2019-05-25T09:45:47.012Z,20.70
2019-05-25T09:48:16.602Z,20.90
2019-05-25T09:50:45.475Z,21.10
2019-05-25T09:53:14.298Z,21.20
2019-05-25T09:55:43.136Z,21.40
2019-05-25T09:58:11.995Z,21.20
2019-05-25T10:00:40.872Z,21.40
2019-05-25T10:03:10.434Z,21.40
2019-05-25T10:05:39.279Z,21.50
2019-05-25T10:08:08.140Z,21.60
2019-05-25T10:10:36.990Z,21.60
2019-05-25T10:13:05.822Z,21.80
2019-05-25T10:15:34.656Z,22.00
2019-05-25T10:18:03.502Z,22.00
2019-05-25T10:20:32.364Z,22.00
2019-05-25T10:23:01.198Z,22.00
2019-05-25T10:25:30.112Z,22.10
2019-05-25T10:27:58.892Z,22.10
2019-05-25T10:30:27.738Z,22.40
2019-05-25T10:32:56.588Z,22.50
2019-05-25T10:35:25.441Z,22.60
2019-05-25T10:37:54.284Z,22.70
2019-05-25T10:40:23.141Z,22.50
2019-05-25T10:42:52.052Z,22.50
2019-05-25T10:45:20.895Z,22.70
2019-05-25T10:47:49.742Z,22.90
2019-05-25T10:50:18.580Z,22.80
2019-05-25T10:52:47.439Z,23.00
2019-05-25T10:55:17.039Z,22.70
2019-05-25T11:00:15.383Z,23.10
2019-05-25T11:02:44.935Z,23.20
2019-05-25T11:05:13.781Z,23.50
2019-05-25T11:07:42.673Z,23.50
2019-05-25T11:10:11.591Z,23.50
2019-05-25T11:12:40.406Z,22.90
2019-05-25T11:15:09.278Z,22.60
2019-05-25T11:17:38.136Z,22.60
2019-05-25T11:20:06.984Z,22.10
2019-05-25T11:22:36.583Z,21.80
2019-05-25T11:25:06.350Z,21.70
2019-05-25T11:27:35.180Z,21.60
2019-05-25T11:32:33.484Z,21.60
2019-05-25T11:35:03.105Z,21.60
2019-05-25T11:37:31.958Z,21.60
2019-05-25T11:40:00.816Z,21.60
2019-05-25T11:42:29.641Z,21.70
2019-05-25T11:44:58.540Z,21.90
2019-05-25T11:47:27.409Z,22.00
2019-05-25T11:49:56.318Z,22.10
2019-05-25T11:52:25.909Z,22.10
2019-05-25T11:54:54.766Z,22.10
2019-05-25T11:57:23.605Z,22.10
2019-05-25T11:59:53.193Z,22.10
2019-05-25T12:02:22.074Z,22.30
2019-05-25T12:04:50.922Z,22.40
2019-05-25T12:07:19.807Z,22.60
2019-05-25T12:09:49.416Z,22.90
2019-05-25T12:12:18.972Z,23.00
2019-05-25T12:14:47.838Z,22.80
2019-05-25T12:17:16.686Z,22.60
2019-05-25T12:19:46.271Z,22.60
2019-05-25T12:22:15.179Z,22.70
2019-05-25T12:24:44.766Z,22.70
2019-05-25T12:27:13.586Z,22.40
2019-05-25T12:29:42.435Z,22.40
2019-05-25T12:32:11.294Z,22.40
2019-05-25T12:34:40.130Z,22.30
2019-05-25T12:37:09.720Z,22.30
2019-05-25T12:39:38.556Z,22.20
2019-05-25T12:42:07.404Z,22.20
2019-05-25T12:44:36.380Z,22.50
2019-05-25T12:47:05.129Z,22.50
2019-05-25T12:49:49.393Z,22.50
2019-05-25T12:52:02.818Z,22.50
2019-05-25T12:54:31.650Z,22.60
2019-05-25T12:57:02.805Z,22.60
2019-05-25T12:59:30.122Z,22.80
2019-05-25T13:01:58.969Z,22.80
2019-05-25T13:04:27.850Z,22.80
2019-05-25T13:06:56.734Z,22.80
2019-05-25T13:09:25.546Z,23.10
2019-05-25T13:11:54.402Z,23.60
2019-05-25T13:14:24.009Z,23.80
2019-05-25T13:16:53.601Z,23.90
2019-05-25T13:19:22.445Z,24.10
2019-05-25T13:21:51.282Z,24.20
2019-05-25T13:24:20.137Z,24.50
2019-05-25T13:26:48.985Z,24.90
2019-05-25T13:29:18.562Z,24.90
2019-05-25T13:31:47.414Z,24.60
2019-05-25T13:34:16.253Z,24.70
2019-05-25T13:36:45.842Z,24.80
2019-05-25T13:39:14.710Z,24.90
2019-05-25T13:41:43.558Z,25.30
2019-05-25T13:44:12.401Z,25.30
2019-05-25T13:46:41.236Z,25.20
2019-05-25T13:49:10.124Z,25.50
2019-05-25T13:51:39.010Z,25.50
2019-05-25T13:54:07.821Z,25.30
2019-05-25T13:56:36.663Z,25.40
2019-05-25T14:01:35.680Z,25.80
2019-05-25T14:04:05.310Z,25.80
2019-05-25T14:06:34.146Z,26.30
2019-05-25T14:09:03.017Z,25.80
2019-05-25T14:11:31.779Z,25.70
2019-05-25T14:14:00.691Z,25.60
2019-05-25T14:16:29.506Z,25.70
2019-05-25T14:18:58.345Z,26.00
2019-05-25T14:21:27.175Z,26.30
2019-05-25T14:23:56.763Z,26.50
2019-05-25T14:26:25.610Z,26.40
2019-05-25T14:28:55.210Z,26.40
2019-05-25T14:31:24.060Z,26.60
2019-05-25T14:33:52.916Z,26.50
2019-05-25T14:36:22.508Z,26.90
2019-05-25T14:38:52.105Z,26.60
2019-05-25T14:41:21.708Z,26.70
2019-05-25T14:43:50.560Z,26.90
2019-05-25T14:46:27.362Z,26.40
2019-05-25T14:48:49.154Z,26.70
2019-05-25T14:51:17.999Z,26.80
2019-05-25T14:53:46.870Z,26.50
2019-05-25T14:56:15.676Z,26.90
2019-05-25T14:58:45.583Z,26.30
2019-05-25T15:01:14.183Z,26.30
2019-05-25T15:03:43.124Z,26.50
2019-05-25T15:06:11.941Z,26.00
2019-05-25T15:08:41.550Z,26.10
2019-05-25T15:11:10.434Z,25.60
2019-05-25T15:13:39.264Z,25.80
2019-05-25T15:16:08.115Z,25.60
2019-05-25T15:18:36.998Z,25.90
2019-05-25T15:21:05.818Z,25.70
2019-05-25T15:23:34.699Z,25.70
2019-05-25T15:26:03.525Z,25.60
2019-05-25T15:28:32.432Z,25.60
2019-05-25T15:31:01.248Z,25.40
2019-05-25T15:33:30.107Z,25.40
2019-05-25T15:35:58.941Z,25.30
2019-05-25T15:38:28.531Z,25.60
2019-05-25T15:40:57.468Z,25.60
2019-05-25T15:43:26.237Z,25.60
2019-05-25T15:45:55.831Z,26.10
2019-05-25T15:50:54.115Z,26.50
2019-05-25T15:53:22.960Z,26.90
2019-05-25T15:55:51.808Z,26.50
2019-05-25T15:58:20.697Z,26.50
2019-05-25T16:00:49.502Z,26.60
2019-05-25T16:03:18.343Z,26.70
2019-05-25T16:05:47.746Z,26.60
2019-05-25T16:08:16.055Z,26.60
2019-05-25T16:10:44.898Z,26.00
2019-05-25T16:13:13.766Z,25.40
2019-05-25T16:15:42.617Z,25.40
2019-05-25T16:18:11.488Z,25.20
2019-05-25T16:20:40.335Z,25.80
2019-05-25T16:23:09.173Z,26.10
2019-05-25T16:25:38.052Z,26.20
2019-05-25T16:28:06.893Z,25.50
2019-05-25T16:30:35.741Z,25.00
2019-05-25T16:33:12.341Z,24.70
2019-05-25T16:35:33.461Z,24.50
2019-05-25T16:38:02.455Z,24.90
2019-05-25T16:40:31.247Z,25.00
2019-05-25T16:43:00.095Z,25.10
2019-05-25T16:45:29.026Z,24.60
2019-05-25T16:47:58.827Z,24.20
2019-05-25T16:50:27.662Z,24.10
2019-05-25T16:52:56.507Z,23.80
2019-05-25T16:55:25.372Z,23.70
2019-05-25T16:57:54.276Z,23.70
2019-05-25T17:00:25.791Z,23.70
2019-05-25T17:02:54.622Z,23.60
2019-05-25T17:05:23.463Z,23.70
2019-05-25T17:07:52.318Z,23.60
2019-05-25T17:10:21.283Z,23.50
2019-05-25T17:12:50.022Z,23.50
2019-05-25T17:15:18.860Z,23.30
2019-05-25T17:17:48.451Z,23.20
2019-05-25T17:20:18.029Z,23.20
2019-05-25T17:22:46.884Z,23.10
2019-05-25T17:25:15.749Z,23.10
2019-05-25T17:27:45.349Z,22.90
2019-05-25T17:30:14.941Z,22.90
2019-05-25T17:32:43.783Z,22.80
2019-05-25T17:35:12.623Z,22.70
2019-05-25T17:37:41.473Z,22.70
2019-05-25T17:40:10.308Z,22.70
2019-05-25T17:42:39.154Z,22.70
2019-05-25T17:45:08.070Z,22.60
2019-05-25T17:47:36.920Z,22.60
2019-05-25T17:50:05.771Z,22.60
2019-05-25T17:52:34.627Z,22.50
2019-05-25T17:55:03.522Z,22.50
2019-05-25T17:57:32.329Z,22.40
2019-05-25T18:00:01.186Z,22.40
2019-05-25T18:02:30.027Z,22.40
2019-05-25T18:04:58.883Z,22.40
2019-05-25T18:07:27.721Z,22.40
2019-05-25T18:09:56.567Z,22.20
2019-05-25T18:12:25.441Z,22.20
2019-05-25T18:14:54.315Z,22.20
2019-05-25T18:17:24.595Z,22.20
2019-05-25T18:19:54.183Z,22.10
2019-05-25T18:22:23.789Z,22.10
2019-05-25T18:24:52.648Z,22.10
2019-05-25T18:27:21.531Z,22.10
2019-05-25T18:29:50.440Z,22.00
2019-05-25T18:32:19.294Z,21.80
2019-05-25T18:34:48.154Z,21.90
2019-05-25T18:39:46.431Z,21.80
2019-05-25T18:42:15.358Z,21.70
2019-05-25T18:44:44.239Z,21.60
2019-05-25T18:47:13.123Z,21.60
2019-05-25T18:49:41.961Z,21.50
2019-05-25T18:52:10.812Z,21.40
2019-05-25T18:54:39.660Z,21.50
2019-05-25T18:57:09.551Z,21.40
2019-05-25T18:59:37.425Z,21.30
2019-05-25T19:02:06.293Z,21.40
2019-05-25T19:04:44.685Z,21.30
2019-05-25T19:07:04.019Z,21.20
2019-05-25T19:09:32.862Z,21.10
2019-05-25T19:12:01.723Z,21.00
2019-05-25T19:14:30.551Z,20.90
2019-05-25T19:16:59.396Z,20.80
2019-05-25T19:19:28.250Z,20.80
2019-05-25T19:21:57.109Z,20.70
2019-05-25T19:24:25.950Z,20.70
2019-05-25T19:26:55.559Z,20.60
2019-05-25T19:29:24.438Z,20.50
2019-05-25T19:31:53.285Z,20.60
2019-05-25T19:34:22.121Z,20.50
2019-05-25T19:36:50.990Z,20.50
2019-05-25T19:39:19.933Z,20.50
2019-05-25T19:41:48.707Z,20.40
2019-05-25T19:44:17.583Z,20.40
2019-05-25T19:46:46.421Z,20.40
2019-05-25T19:49:15.251Z,20.40
2019-05-25T19:51:44.115Z,20.30
2019-05-25T19:54:12.971Z,20.20
2019-05-25T19:56:41.815Z,20.20
2019-05-25T19:59:10.684Z,20.10
2019-05-25T20:01:39.543Z,20.00
2019-05-25T20:04:08.372Z,20.00
2019-05-25T20:06:37.236Z,19.90
2019-05-25T20:09:06.079Z,19.90
2019-05-25T20:11:34.933Z,19.80
2019-05-25T20:14:03.783Z,19.80
2019-05-25T20:16:32.660Z,19.70
2019-05-25T20:19:01.563Z,19.60
2019-05-25T20:21:30.388Z,19.60
2019-05-25T20:23:59.256Z,19.50
2019-05-25T20:26:28.144Z,19.40
2019-05-25T20:28:57.715Z,19.30
2019-05-25T20:31:27.316Z,19.20
2019-05-25T20:33:56.897Z,19.10
2019-05-25T20:36:25.763Z,19.00
2019-05-25T20:38:54.578Z,19.10
2019-05-25T20:41:23.404Z,19.00
2019-05-25T20:43:52.265Z,19.00
2019-05-25T20:48:51.295Z,18.90
2019-05-25T20:51:20.148Z,18.90
2019-05-25T20:53:48.987Z,18.90
2019-05-25T20:56:17.959Z,18.90
2019-05-25T20:58:47.533Z,18.80
2019-05-25T21:01:16.379Z,18.80
2019-05-25T21:03:45.226Z,18.80
2019-05-25T21:06:14.085Z,18.80
2019-05-25T21:08:42.929Z,18.70
2019-05-25T21:11:12.545Z,18.60
2019-05-25T21:13:42.625Z,18.70
2019-05-25T21:16:11.475Z,18.70
2019-05-25T21:18:40.325Z,18.70
2019-05-25T21:21:09.909Z,18.50
2019-05-25T21:23:38.774Z,18.60
2019-05-25T21:26:07.621Z,18.60
2019-05-25T21:28:37.289Z,18.60
2019-05-25T21:31:06.119Z,18.70
2019-05-25T21:33:34.965Z,18.60
2019-05-25T21:36:08.855Z,18.60
2019-05-25T21:38:32.690Z,18.70
2019-05-25T21:41:02.275Z,18.80
2019-05-25T21:43:31.888Z,18.80
2019-05-25T21:46:00.762Z,18.80
2019-05-25T21:48:29.619Z,18.80
2019-05-25T21:50:58.495Z,18.90
2019-05-25T21:53:28.033Z,18.80
2019-05-25T21:55:56.885Z,18.80
2019-05-25T21:58:25.745Z,18.60
2019-05-25T22:00:54.593Z,18.60
2019-05-25T22:03:23.418Z,18.60
2019-05-25T22:05:52.990Z,18.40
2019-05-25T22:08:21.827Z,18.40
2019-05-25T22:10:50.683Z,18.50
2019-05-25T22:13:27.915Z,18.50
2019-05-25T22:15:48.356Z,18.60
2019-05-25T22:18:17.205Z,18.60
2019-05-25T22:20:46.058Z,18.70
2019-05-25T22:23:14.921Z,18.70
2019-05-25T22:25:43.795Z,18.70
2019-05-25T22:28:12.622Z,18.70
2019-05-25T22:30:42.221Z,18.70
2019-05-25T22:33:11.079Z,18.70
2019-05-25T22:35:39.917Z,18.70
2019-05-25T22:38:09.498Z,18.70
2019-05-25T22:40:38.359Z,18.70
2019-05-25T22:43:07.197Z,18.70
2019-05-25T22:45:36.121Z,18.70
2019-05-25T22:48:04.963Z,18.70
2019-05-25T22:50:33.789Z,18.70
2019-05-25T22:53:02.647Z,18.60
2019-05-25T22:55:31.488Z,18.60
2019-05-25T22:58:00.341Z,18.60
2019-05-25T23:00:29.936Z,18.50
2019-05-25T23:02:58.844Z,18.50
2019-05-25T23:05:28.425Z,18.50
2019-05-25T23:07:57.283Z,18.40
2019-05-25T23:10:26.171Z,18.30
2019-05-25T23:12:55.049Z,18.30
2019-05-25T23:15:23.904Z,18.20
2019-05-25T23:17:53.500Z,18.10
2019-05-25T23:20:23.089Z,18.10
2019-05-25T23:22:51.943Z,18.00
2019-05-25T23:25:20.785Z,18.00
2019-05-25T23:27:50.375Z,18.00
2019-05-25T23:30:19.231Z,18.00
2019-05-25T23:32:48.076Z,17.90
2019-05-25T23:35:17.651Z,17.80
2019-05-25T23:37:46.494Z,17.90
2019-05-25T23:40:15.322Z,17.70
2019-05-25T23:42:44.168Z,17.70
2019-05-25T23:45:13.008Z,17.70
2019-05-25T23:47:41.851Z,17.60
2019-05-25T23:50:10.701Z,17.70
2019-05-25T23:52:39.544Z,17.80
2019-05-25T23:55:08.378Z,17.80
2019-05-25T23:57:37.251Z,17.70
